Holy Cross Information

FAA: HCA - ICAO: PAHC

Holy Cross (Airport) Location

State Alaska
County Yukon-Koyukuk
City Holy Cross
Holy Cross (Airport) is 1 mile south of Holy Cross, AK.
Latitude 62-11-17.9000N
Longitude 159-46-29.8000W
Elevation 74ft

Holy Cross METARs

METAR PAHC 190756Z AUTO 33005KT 10SM CLR 13/01 A3025 RMK AO2 SLP248 T01330011 401671011 $
Altimeter 30.25"
Temperature 13.3°C (55.9°F)
Wind 330° at 5KT
Clouds Skies are clear.
Visibility 10.0mi
Time observed: 2022-05-19T07:56:00Z

Holy Cross (Airport) Details

Status Operational
Activation August 1947
Ownership Public
Usage Public
Chart MC GRATH
ATC on-site No
Beacon schedule sunset-sunrise
Beacon color clear green

Holy Cross (Airport) Contacts

Owner ALASKA DOT&PF NORTHERN REGION
Owner address 2301 PEGER ROAD, FAIRBANKS, AK 99709-5399
Owner phone 907-451-2200
Manager RENIER SWART
Manager address P.O. BOX 196660, MS 530B, ANCHORAGE, AK 99512
Manager phone (907) 787-8959

Holy Cross Radio Frequencies

Holy Cross (Airport) Radio Frequencies

UNICOM N/A
Common traffic advisory frequency (CTAF) 122.8